Time;durP1;ratioP1;P1;durP2;ratioP2;P2;SDS_P1;SDS_P2;PMS_P1;PMS_P2;Temp;Humidity;BMP_temperature;BMP_pressure;BME280_temperature;BME280_humidity;BME280_pressure;Samples;Min_cycle;Max_cycle;Signal;HPM_P1;HPM_P2
2023/12/13 00:02:26;;;;;;;5.10;4.70;;;;;;;7.77;100.00;96893.09;15282425;19;20499;-62
2023/12/13 00:07:51;;;;;;;5.07;4.57;;;;;;;7.79;100.00;96884.91;15288957;19;20392;-63
2023/12/13 00:13:25;;;;;;;5.22;4.72;;;;;;;7.81;100.00;96882.88;15292587;19;20010;-63
2023/12/13 00:18:50;;;;;;;5.88;5.38;;;;;;;7.85;100.00;96878.78;15281646;19;20014;-63
2023/12/13 00:24:15;;;;;;;5.78;5.28;;;;;;;7.86;100.00;96870.59;15291034;19;20032;-63
2023/12/13 00:29:43;;;;;;;5.78;5.28;;;;;;;7.87;100.00;96863.38;15288727;19;20014;-63
2023/12/13 00:35:07;;;;;;;5.65;5.10;;;;;;;7.86;100.00;96861.69;15289560;19;20015;-63
2023/12/13 00:40:38;;;;;;;5.60;5.10;;;;;;;7.86;100.00;96864.38;15286658;19;20014;-63
2023/12/13 00:46:08;;;;;;;6.03;5.43;;;;;;;7.84;100.00;96855.69;15289982;19;20029;-63
2023/12/13 00:51:32;;;;;;;7.10;5.35;;;;;;;7.86;100.00;96853.66;15284512;19;20018;-63
2023/12/13 00:56:57;;;;;;;6.40;4.75;;;;;;;7.85;100.00;96863.56;15287842;19;20034;-63
2023/12/13 01:02:24;;;;;;;5.60;4.82;;;;;;;7.86;100.00;96870.59;15286351;19;20014;-63
2023/12/13 01:07:49;;;;;;;5.78;5.28;;;;;;;7.82;100.00;96863.09;15276534;19;20021;-64
2023/12/13 01:13:13;;;;;;;7.35;6.65;;;;;;;7.73;100.00;96875.75;15287552;19;20019;-64
2023/12/13 01:18:41;;;;;;;7.57;6.88;;;;;;;7.64;100.00;96883.00;15286254;19;20021;-64
2023/12/13 01:24:05;;;;;;;8.15;6.75;;;;;;;7.61;100.00;96880.69;15023246;19;5001828;-67
2023/12/13 01:29:30;;;;;;;7.70;6.97;;;;;;;7.56;100.00;96885.78;15285088;19;20102;-66
2023/12/13 01:34:57;;;;;;;7.68;6.97;;;;;;;7.51;100.00;96886.31;15287881;19;20078;-66
2023/12/13 01:40:22;;;;;;;7.82;7.03;;;;;;;7.48;100.00;96902.75;15274161;19;20022;-56
2023/12/13 01:45:46;;;;;;;8.05;7.18;;;;;;;7.48;100.00;96909.94;14774497;19;10001396;-54
2023/12/13 01:51:15;;;;;;;8.23;7.30;;;;;;;7.44;100.00;96914.00;15281194;19;20017;-58
2023/12/13 01:56:40;;;;;;;10.38;8.13;;;;;;;7.39;100.00;96898.47;15281677;19;20007;-53
2023/12/13 02:01:58;;;;;;;9.80;8.23;;;;;;;7.35;100.00;96891.78;15284106;19;20102;-57
2023/12/13 02:07:27;;;;;;;10.88;8.85;;;;;;;7.33;100.00;96902.69;15287719;19;20007;-54
2023/12/13 02:12:53;;;;;;;10.25;8.88;;;;;;;7.33;100.00;96899.16;15285864;19;20010;-54
2023/12/13 02:18:18;;;;;;;10.68;8.85;;;;;;;7.33;100.00;96905.38;15285932;19;20014;-55
2023/12/13 02:23:46;;;;;;;10.50;8.77;;;;;;;7.35;100.00;96906.00;15285712;19;20021;-55
2023/12/13 02:29:12;;;;;;;12.52;8.80;;;;;;;7.33;100.00;96891.13;15294009;19;20021;-55
2023/12/13 02:34:36;;;;;;;11.07;8.82;;;;;;;7.33;100.00;96891.13;15299440;19;20522;-55
2023/12/13 02:40:04;;;;;;;12.15;9.98;;;;;;;7.32;100.00;96870.69;15296158;19;20078;-56
2023/12/13 02:45:28;;;;;;;12.85;9.80;;;;;;;7.31;100.00;96867.19;15299334;19;20023;-58
2023/12/13 02:50:53;;;;;;;11.68;9.07;;;;;;;7.25;100.00;96868.75;15296608;19;20031;-57
2023/12/13 02:56:20;;;;;;;10.00;8.45;;;;;;;7.18;100.00;96875.00;15295328;19;20479;-57
2023/12/13 03:01:45;;;;;;;12.23;8.52;;;;;;;7.13;100.00;96885.41;15283831;19;20054;-53
2023/12/13 03:07:09;;;;;;;12.10;9.23;;;;;;;7.07;100.00;96893.16;15294736;19;20030;-54
2023/12/13 03:12:38;;;;;;;12.00;8.68;;;;;;;7.07;100.00;96887.78;15298540;19;20074;-56
2023/12/13 03:18:02;;;;;;;9.20;7.43;;;;;;;7.01;100.00;96890.34;15294523;19;20029;-57
2023/12/13 03:23:27;;;;;;;13.45;7.13;;;;;;;6.91;100.00;96890.56;15292709;19;20090;-59
2023/12/13 03:28:54;;;;;;;10.50;7.53;;;;;;;6.83;100.00;96896.78;15296232;19;20360;-56
2023/12/13 03:34:19;;;;;;;8.07;6.80;;;;;;;6.76;100.00;96896.63;15289837;19;20028;-57
2023/12/13 03:39:43;;;;;;;10.63;7.32;;;;;;;6.71;100.00;96899.03;15293140;19;20506;-57
2023/12/13 03:45:12;;;;;;;8.95;6.60;;;;;;;6.70;100.00;96913.41;15296387;19;20077;-58
2023/12/13 03:50:36;;;;;;;8.18;6.30;;;;;;;6.67;100.00;96919.09;15291460;19;20037;-56
2023/12/13 03:56:02;;;;;;;8.40;6.35;;;;;;;6.67;100.00;96920.97;15296029;19;20021;-57
2023/12/13 04:01:29;;;;;;;7.85;5.90;;;;;;;6.66;100.00;96928.13;15289253;19;20089;-57
2023/12/13 04:06:54;;;;;;;6.50;5.70;;;;;;;6.65;100.00;96921.09;15286935;19;20011;-55
2023/12/13 04:12:18;;;;;;;6.05;5.45;;;;;;;6.71;100.00;96914.22;15288046;19;20018;-53
2023/12/13 04:17:46;;;;;;;5.00;4.05;;;;;;;6.85;100.00;96926.06;15291074;19;20018;-57
2023/12/13 04:23:10;;;;;;;4.65;4.20;;;;;;;6.89;100.00;96930.03;15287636;19;20024;-55
2023/12/13 04:28:35;;;;;;;5.22;4.25;;;;;;;6.89;100.00;96916.66;15291046;19;20021;-52
2023/12/13 04:34:03;;;;;;;4.60;3.90;;;;;;;6.93;100.00;96920.66;15289677;19;20070;-58
2023/12/13 04:39:28;;;;;;;3.92;3.63;;;;;;;6.97;100.00;96911.28;15279875;19;20021;-56
2023/12/13 04:44:55;;;;;;;4.40;3.75;;;;;;;7.01;100.00;96911.75;15286247;19;20010;-56
2023/12/13 04:50:23;;;;;;;4.40;4.00;;;;;;;6.99;100.00;96903.91;15286474;19;20485;-55
2023/12/13 04:55:47;;;;;;;4.40;4.00;;;;;;;7.00;100.00;96899.38;15288862;19;20364;-56
2023/12/13 05:01:12;;;;;;;4.50;4.10;;;;;;;7.00;100.00;96892.16;15285621;19;20018;-55
2023/12/13 05:06:39;;;;;;;4.30;3.90;;;;;;;7.01;100.00;96891.16;15289232;19;20485;-56
2023/12/13 05:12:04;;;;;;;4.32;3.80;;;;;;;7.00;100.00;96891.34;15280508;19;20019;-56
2023/12/13 05:17:29;;;;;;;4.35;3.35;;;;;;;6.94;100.00;96876.81;15290102;19;20020;-56
2023/12/13 05:22:57;;;;;;;5.05;3.88;;;;;;;6.81;100.00;96873.88;15286336;19;20018;-54
2023/12/13 05:28:21;;;;;;;5.13;4.07;;;;;;;6.69;100.00;96879.63;15286017;19;20019;-55
2023/12/13 05:33:46;;;;;;;4.43;3.92;;;;;;;6.55;100.00;96875.84;15291009;19;20023;-56
2023/12/13 05:39:20;;;;;;;5.15;4.32;;;;;;;6.44;100.00;96869.03;15286545;19;20020;-55
2023/12/13 05:44:46;;;;;;;5.85;4.00;;;;;;;6.39;100.00;96876.75;15277983;19;20021;-55
2023/12/13 05:50:10;;;;;;;4.63;3.35;;;;;;;6.34;100.00;96883.63;15286194;19;20033;-53
2023/12/13 05:55:38;;;;;;;3.47;2.92;;;;;;;6.32;100.00;96887.31;15287200;19;20010;-52
2023/12/13 06:01:06;;;;;;;2.80;2.50;;;;;;;6.42;100.00;96897.78;15293915;19;20329;-54
2023/12/13 06:06:31;;;;;;;5.20;2.20;;;;;;;6.46;100.00;96903.66;15299985;19;20467;-55
2023/12/13 06:11:58;;;;;;;4.93;1.90;;;;;;;6.50;100.00;96912.16;15296955;19;20023;-55
2023/12/13 06:17:23;;;;;;;2.83;1.70;;;;;;;6.51;100.00;96905.81;15301162;19;20347;-53
2023/12/13 06:22:47;;;;;;;3.72;2.20;;;;;;;6.53;100.00;96906.44;15298337;19;20408;-52
2023/12/13 06:28:15;;;;;;;4.32;2.20;;;;;;;6.51;100.00;96903.94;15299632;19;20359;-54
2023/12/13 06:33:39;;;;;;;2.90;2.40;;;;;;;6.50;100.00;96906.81;15300561;19;20021;-57
2023/12/13 06:39:07;;;;;;;3.35;3.00;;;;;;;6.49;100.00;96911.31;15297450;19;20022;-54
2023/12/13 06:44:34;;;;;;;5.22;3.65;;;;;;;6.46;100.00;96900.97;15293736;19;20018;-55
2023/12/13 06:49:59;;;;;;;4.50;3.50;;;;;;;6.47;100.00;96902.63;15297645;19;20014;-54
2023/12/13 06:55:24;;;;;;;3.30;2.60;;;;;;;6.50;100.00;96922.88;15298877;19;20022;-55
2023/12/13 07:00:52;;;;;;;3.35;2.20;;;;;;;6.56;100.00;96924.84;15296562;19;20015;-53
2023/12/13 07:06:18;;;;;;;3.67;1.73;;;;;;;6.58;100.00;96925.50;15298433;19;20017;-54
2023/12/13 07:11:43;;;;;;;2.25;1.60;;;;;;;6.60;100.00;96928.84;15293480;19;20010;-55
2023/12/13 07:17:10;;;;;;;4.03;1.48;;;;;;;6.56;100.00;96927.50;15293660;19;20015;-54
2023/12/13 07:22:35;;;;;;;3.40;1.80;;;;;;;6.53;100.00;96919.81;15295686;19;20011;-54
2023/12/13 07:28:00;;;;;;;4.45;2.20;;;;;;;6.44;100.00;96922.53;15295079;19;20079;-57
2023/12/13 07:33:28;;;;;;;4.60;2.72;;;;;;;6.35;100.00;96918.22;15295374;19;20025;-55
2023/12/13 07:38:52;;;;;;;4.53;2.67;;;;;;;6.32;100.00;96921.22;15295194;19;20025;-52
2023/12/13 07:44:17;;;;;;;4.13;2.70;;;;;;;6.31;100.00;96917.72;15296462;19;20098;-52
2023/12/13 07:49:45;;;;;;;3.53;2.28;;;;;;;6.28;100.00;96919.91;15290929;19;20363;-55
2023/12/13 07:55:12;;;;;;;4.25;2.45;;;;;;;6.23;100.00;96924.94;15298038;19;20053;-57
2023/12/13 08:00:38;;;;;;;3.92;2.80;;;;;;;6.14;100.00;96927.63;15296071;19;20015;-55
2023/12/13 08:06:13;;;;;;;3.03;2.50;;;;;;;6.10;100.00;96923.63;15293886;19;20015;-55
2023/12/13 08:11:37;;;;;;;4.32;2.53;;;;;;;6.08;100.00;96920.28;15295176;19;20372;-54
2023/12/13 08:17:06;;;;;;;4.20;2.67;;;;;;;6.03;100.00;96925.31;15296401;19;20041;-55
2023/12/13 08:22:33;;;;;;;4.00;2.40;;;;;;;5.99;100.00;96929.28;15288695;19;20022;-53
2023/12/13 08:27:58;;;;;;;5.05;2.80;;;;;;;6.00;100.00;96931.81;15295789;19;20114;-54
2023/12/13 08:33:23;;;;;;;5.75;2.95;;;;;;;6.04;100.00;96940.34;15295014;19;20041;-55
2023/12/13 08:38:51;;;;;;;4.68;2.80;;;;;;;6.09;100.00;96948.69;15294087;19;20417;-55
2023/12/13 08:44:15;;;;;;;4.50;2.95;;;;;;;6.14;100.00;96951.69;15291314;19;20024;-52
2023/12/13 08:49:40;;;;;;;3.30;2.92;;;;;;;6.24;100.00;96945.31;15267805;19;20024;-51
2023/12/13 08:55:08;;;;;;;5.35;2.97;;;;;;;6.36;100.00;96960.00;15290081;19;20035;-53
2023/12/13 09:00:33;;;;;;;4.20;2.70;;;;;;;6.51;100.00;96959.31;15291285;19;20070;-53
2023/12/13 09:05:58;;;;;;;4.18;2.80;;;;;;;6.66;100.00;96965.59;15290842;19;20545;-55
2023/12/13 09:11:26;;;;;;;4.50;2.60;;;;;;;6.81;100.00;96972.91;15289013;19;20018;-54
2023/12/13 09:16:50;;;;;;;3.60;2.55;;;;;;;6.93;100.00;96976.88;15294089;19;20026;-53
2023/12/13 09:22:17;;;;;;;6.20;2.42;;;;;;;7.06;100.00;96985.19;15289791;19;20090;-54
2023/12/13 09:27:44;;;;;;;5.22;2.15;;;;;;;7.24;100.00;96979.56;15287409;19;20021;-53
2023/12/13 09:33:11;;;;;;;3.00;2.03;;;;;;;7.45;100.00;96979.97;15295976;19;20535;-52
2023/12/13 09:38:35;;;;;;;2.90;1.73;;;;;;;7.63;100.00;96985.06;15305153;19;20372;-52
2023/12/13 09:44:03;;;;;;;2.40;1.55;;;;;;;7.79;100.00;96974.19;15303582;19;20015;-50
2023/12/13 09:49:29;;;;;;;2.03;1.20;;;;;;;7.96;100.00;96974.06;15305211;19;20025;-52
2023/12/13 09:54:57;;;;;;;2.88;1.30;;;;;;;8.15;100.00;96976.25;15306594;19;20037;-55
2023/12/13 10:00:26;;;;;;;3.00;1.05;;;;;;;8.37;100.00;96980.91;15297396;19;20011;-50
2023/12/13 10:05:51;;;;;;;3.75;1.23;;;;;;;8.48;100.00;96977.81;15300129;19;20045;-50
2023/12/13 10:11:15;;;;;;;2.22;1.00;;;;;;;8.48;100.00;96959.03;15300575;19;20371;-52
2023/12/13 10:16:43;;;;;;;1.73;0.90;;;;;;;8.52;100.00;96954.97;15307336;19;20014;-50
2023/12/13 10:22:25;;;;;;;2.90;1.10;;;;;;;8.54;100.00;96942.16;15297538;19;20010;-53
2023/12/13 10:27:50;;;;;;;2.38;1.00;;;;;;;8.56;100.00;96947.38;15303157;19;20032;-53
2023/12/13 10:33:18;;;;;;;1.55;0.65;;;;;;;8.57;100.00;96935.63;15298626;19;20392;-53
2023/12/13 10:38:45;;;;;;;2.03;0.75;;;;;;;8.57;100.00;96925.69;15301462;19;20473;-51
2023/12/13 10:44:11;;;;;;;1.52;0.80;;;;;;;8.62;100.00;96923.31;15298692;19;20339;-51
2023/12/13 10:49:40;;;;;;;1.65;0.65;;;;;;;8.69;100.00;96927.91;15299725;19;20024;-52
2023/12/13 10:55:05;;;;;;;1.75;0.63;;;;;;;8.76;100.00;96920.81;15297237;19;20014;-52
2023/12/13 11:00:30;;;;;;;2.33;0.90;;;;;;;8.81;100.00;96915.69;15296753;19;20714;-50
2023/12/13 11:05:57;;;;;;;3.80;0.80;;;;;;;8.84;100.00;96903.72;15292010;19;20021;-55
2023/12/13 11:11:29;;;;;;;2.38;0.73;;;;;;;8.81;100.00;96904.94;15296139;19;20082;-50
2023/12/13 11:16:58;;;;;;;2.70;1.10;;;;;;;8.80;100.00;96900.59;15295479;19;20447;-52
2023/12/13 11:22:26;;;;;;;1.77;1.00;;;;;;;8.81;100.00;96883.47;15291497;19;20033;-53
2023/12/13 11:28:00;;;;;;;3.13;1.20;;;;;;;8.90;100.00;96886.88;15296974;19;20010;-52
2023/12/13 11:33:25;;;;;;;2.65;1.10;;;;;;;8.98;100.00;96896.69;15299668;19;20082;-53
2023/12/13 11:38:52;;;;;;;2.60;1.15;;;;;;;9.08;100.00;96889.16;15293422;19;20375;-50
2023/12/13 11:44:17;;;;;;;2.72;1.00;;;;;;;9.13;100.00;96891.25;15296944;19;20015;-53
2023/12/13 11:49:42;;;;;;;4.53;0.93;;;;;;;9.29;100.00;96898.25;15296768;19;20041;-53
2023/12/13 11:55:11;;;;;;;2.28;0.60;;;;;;;9.40;100.00;96895.91;15297599;19;20109;-53
2023/12/13 12:00:39;;;;;;;2.78;0.90;;;;;;;9.49;100.00;96887.69;15296130;19;20349;-54
2023/12/13 12:06:15;;;;;;;2.03;0.82;;;;;;;9.53;100.00;96888.97;15294559;19;20020;-50
2023/12/13 12:11:42;;;;;;;1.63;0.90;;;;;;;9.57;100.00;96884.88;15290947;19;20025;-52
2023/12/13 12:17:07;;;;;;;1.98;0.80;;;;;;;9.58;100.00;96874.97;15296576;19;20477;-51
2023/12/13 12:22:33;;;;;;;1.20;0.60;;;;;;;9.63;100.00;96870.69;15296612;19;20011;-52
2023/12/13 12:28:01;;;;;;;1.08;0.73;;;;;;;9.73;100.00;96864.94;15296520;19;20006;-51
2023/12/13 12:33:26;;;;;;;2.97;0.70;;;;;;;9.74;100.00;96865.78;15295944;19;20019;-51
2023/12/13 12:38:50;;;;;;;2.67;0.93;;;;;;;9.73;100.00;96864.94;15295555;19;20011;-50
2023/12/13 12:44:18;;;;;;;2.25;0.88;;;;;;;9.74;100.00;96865.78;15289186;19;20018;-52
2023/12/13 12:49:42;;;;;;;1.02;0.85;;;;;;;9.73;100.00;96859.56;15293407;19;20010;-50
2023/12/13 12:55:07;;;;;;;2.70;0.63;;;;;;;9.71;100.00;96861.63;15292940;19;20022;-52
2023/12/13 13:00:34;;;;;;;2.00;0.90;;;;;;;9.68;100.00;96857.47;15291751;19;20093;-51
2023/12/13 13:06:00;;;;;;;2.13;0.70;;;;;;;9.72;100.00;96868.66;15290115;19;20026;-49
2023/12/13 13:11:25;;;;;;;2.38;0.82;;;;;;;9.71;100.00;96867.84;15289119;19;20028;-51
2023/12/13 13:16:53;;;;;;;2.05;0.70;;;;;;;9.78;100.00;96867.91;15286859;19;20435;-51
2023/12/13 13:22:17;;;;;;;2.50;0.80;;;;;;;9.81;100.00;96872.91;15288772;19;20086;-54
2023/12/13 13:27:43;;;;;;;1.92;0.75;;;;;;;9.84;100.00;96866.28;15288320;19;20017;-54
2023/12/13 13:33:11;;;;;;;1.13;0.80;;;;;;;9.78;100.00;96859.81;15291106;19;20078;-51
2023/12/13 13:38:36;;;;;;;1.60;0.80;;;;;;;9.75;100.00;96862.91;15291452;19;20025;31
2023/12/13 13:44:08;;;;;;;2.20;1.00;;;;;;;9.73;100.00;96864.94;15282328;19;20010;-63
2023/12/13 13:49:36;;;;;;;1.23;0.75;;;;;;;9.73;100.00;96859.56;15287605;19;20020;-64
2023/12/13 13:55:01;;;;;;;2.78;0.80;;;;;;;9.70;100.00;96868.06;15289595;19;20498;-63
2023/12/13 14:00:25;;;;;;;2.53;1.00;;;;;;;9.67;100.00;96871.94;15288426;19;20089;-64
2023/12/13 14:05:54;;;;;;;2.45;0.80;;;;;;;9.65;100.00;96867.78;15287892;19;20635;-64
2023/12/13 14:11:21;;;;;;;3.57;1.00;;;;;;;9.56;100.00;96872.47;15282964;19;20398;-64
2023/12/13 14:16:46;;;;;;;3.05;0.95;;;;;;;9.51;100.00;96874.91;15286988;19;20094;-63
2023/12/13 14:22:13;;;;;;;2.17;0.90;;;;;;;9.58;100.00;96883.84;15286808;19;20036;-63
2023/12/13 14:27:38;;;;;;;2.03;0.80;;;;;;;9.76;100.00;96890.66;15290944;19;20015;-63
2023/12/13 14:33:03;;;;;;;2.08;0.98;;;;;;;9.73;100.00;96881.09;15293827;19;20029;-62
2023/12/13 14:38:38;;;;;;;3.00;0.85;;;;;;;9.64;100.00;96882.25;15297532;19;20017;-64
2023/12/13 14:44:09;;;;;;;2.78;0.90;;;;;;;9.58;100.00;96883.84;15298696;19;20021;-63
2023/12/13 14:49:34;;;;;;;3.25;0.98;;;;;;;9.50;100.00;96882.13;15294512;19;20081;-66
2023/12/13 14:55:04;;;;;;;1.60;0.70;;;;;;;9.40;100.00;96881.63;15296633;19;20098;-63
2023/12/13 15:00:29;;;;;;;1.50;0.80;;;;;;;9.29;100.00;96879.44;15291285;19;20018;-63
2023/12/13 15:05:54;;;;;;;2.15;1.02;;;;;;;9.21;100.00;96883.94;15292548;19;20036;-64
2023/12/13 15:11:21;;;;;;;2.70;0.88;;;;;;;9.17;100.00;96874.56;15294104;19;20090;-65
2023/12/13 15:16:46;;;;;;;2.65;0.90;;;;;;;9.13;100.00;96886.72;15297927;19;20091;-63
2023/12/13 15:22:12;;;;;;;2.03;0.90;;;;;;;9.07;100.00;96887.47;15287913;19;20014;-63
2023/12/13 15:27:40;;;;;;;1.88;1.02;;;;;;;9.02;100.00;96895.25;15293019;19;20485;-63
2023/12/13 15:33:05;;;;;;;2.92;1.00;;;;;;;8.97;100.00;96898.53;15262678;19;20037;-64
2023/12/13 15:38:32;;;;;;;2.75;0.95;;;;;;;8.92;100.00;96896.41;15297738;19;20010;-63
2023/12/13 15:44:07;;;;;;;1.52;0.70;;;;;;;8.88;100.00;96894.28;15292233;19;20025;-62
2023/12/13 15:49:32;;;;;;;2.97;0.85;;;;;;;8.81;100.00;96888.84;15294240;19;20021;-64
2023/12/13 15:54:57;;;;;;;2.35;0.98;;;;;;;8.76;100.00;96893.94;15290602;19;20028;-65
2023/12/13 16:00:27;;;;;;;2.00;0.95;;;;;;;8.75;100.00;96900.34;15292584;19;20010;-61
2023/12/13 16:05:52;;;;;;;2.43;0.90;;;;;;;8.71;100.00;96905.22;15290438;19;20015;-61
2023/12/13 16:11:16;;;;;;;5.78;1.40;;;;;;;8.63;100.00;96903.50;15289983;19;20740;-63
2023/12/13 16:16:44;;;;;;;6.40;4.00;;;;;;;8.57;100.00;96914.97;15292464;19;20021;-63
2023/12/13 16:22:08;;;;;;;4.15;2.88;;;;;;;8.53;100.00;96913.66;15288258;19;20021;-63
2023/12/13 16:27:33;;;;;;;2.65;1.40;;;;;;;8.49;100.00;96928.50;15283783;19;20487;-64
2023/12/13 16:33:01;;;;;;;2.33;1.40;;;;;;;8.48;100.00;96927.63;15287616;19;20011;-63
2023/12/13 16:38:30;;;;;;;2.53;1.30;;;;;;;8.46;100.00;96928.81;15293143;19;20078;-63
2023/12/13 16:43:54;;;;;;;1.75;0.93;;;;;;;8.40;100.00;96932.25;15286613;19;20010;-63
2023/12/13 16:49:23;;;;;;;3.53;0.93;;;;;;;8.39;100.00;96941.31;15291269;19;20014;-64
2023/12/13 16:54:49;;;;;;;2.47;0.93;;;;;;;8.37;100.00;96946.84;15286442;19;20015;-62
2023/12/13 17:00:17;;;;;;;1.60;1.10;;;;;;;8.31;100.00;96952.97;15282759;19;20014;-64
2023/12/13 17:05:44;;;;;;;2.17;0.90;;;;;;;8.27;100.00;96955.19;15287014;19;20025;-61
2023/12/13 17:11:09;;;;;;;3.58;0.95;;;;;;;8.26;100.00;96958.88;15288441;19;20018;-61
2023/12/13 17:16:33;;;;;;;2.47;1.20;;;;;;;8.21;100.00;96963.94;15287861;19;20129;-64
2023/12/13 17:22:01;;;;;;;3.17;1.38;;;;;;;8.14;100.00;96974.56;15285744;19;20031;-65
2023/12/13 17:27:25;;;;;;;1.55;1.17;;;;;;;8.09;100.00;96966.25;15284194;19;20078;-64
2023/12/13 17:32:50;;;;;;;3.25;1.65;;;;;;;7.98;100.00;96966.69;15279216;19;20017;-62
2023/12/13 17:38:17;;;;;;;2.88;1.50;;;;;;;7.90;100.00;96972.09;15283682;19;20025;-64
2023/12/13 17:43:42;;;;;;;4.95;3.30;;;;;;;7.81;100.00;96974.03;15282457;19;20031;-63
2023/12/13 17:49:07;;;;;;;5.38;2.67;;;;;;;7.68;100.00;96983.50;15282486;19;20322;-63
2023/12/13 17:54:36;;;;;;;3.25;1.63;;;;;;;7.54;100.00;96990.44;15290267;19;20013;-63
2023/12/13 18:00:00;;;;;;;2.35;1.30;;;;;;;7.42;100.00;96997.22;15300456;19;20511;-65
2023/12/13 18:05:25;;;;;;;2.53;1.40;;;;;;;7.31;100.00;97005.66;15295980;19;20475;-63
2023/12/13 18:10:52;;;;;;;2.15;1.30;;;;;;;7.20;100.00;97013.06;15300308;19;20092;-64
2023/12/13 18:16:18;;;;;;;2.83;1.50;;;;;;;7.16;100.00;97019.81;15303364;19;20404;-63
2023/12/13 18:21:43;;;;;;;3.38;1.50;;;;;;;7.14;100.00;97037.03;15298211;19;20011;-62
2023/12/13 18:27:13;;;;;;;4.20;1.50;;;;;;;7.13;100.00;97051.44;15297959;19;20021;-64
2023/12/13 18:32:38;;;;;;;3.25;2.20;;;;;;;7.16;100.00;97061.81;15297015;19;20016;-63
2023/12/13 18:38:03;;;;;;;3.42;1.60;;;;;;;7.16;100.00;97059.13;15291720;19;20015;-65
2023/12/13 18:43:37;;;;;;;3.30;1.73;;;;;;;7.19;100.00;97073.00;15289557;19;20459;-63
2023/12/13 18:49:02;;;;;;;2.50;1.65;;;;;;;7.19;100.00;97086.38;15296971;19;20077;-64
2023/12/13 18:54:27;;;;;;;5.38;2.08;;;;;;;7.20;100.00;97082.72;15296456;19;20033;-62
2023/12/13 18:59:55;;;;;;;3.70;1.88;;;;;;;7.22;100.00;97098.63;15293597;19;20426;-63
2023/12/13 19:05:20;;;;;;;4.28;2.00;;;;;;;7.25;100.00;97103.63;15293633;19;20010;-63
2023/12/13 19:10:45;;;;;;;3.53;1.98;;;;;;;7.23;100.00;97108.34;15287946;19;20018;-63
2023/12/13 19:16:14;;;;;;;4.00;1.80;;;;;;;7.20;100.00;97114.03;15291194;19;20677;-64
2023/12/13 19:21:39;;;;;;;4.05;1.95;;;;;;;7.18;100.00;97113.38;15291133;19;20045;-64
2023/12/13 19:27:04;;;;;;;4.32;1.90;;;;;;;7.18;100.00;97124.06;15292691;19;20380;-63
2023/12/13 19:32:32;;;;;;;2.83;1.77;;;;;;;7.14;100.00;97139.66;15291146;19;20078;-64
2023/12/13 19:37:57;;;;;;;5.03;1.90;;;;;;;7.06;100.00;97140.50;15294724;19;20081;-64
2023/12/13 19:43:33;;;;;;;3.08;1.90;;;;;;;7.00;100.00;97157.25;15263559;19;20852;-51
2023/12/13 19:49:03;;;;;;;3.22;2.22;;;;;;;6.96;100.00;97161.28;15270153;19;20020;-50
2023/12/13 19:54:28;;;;;;;2.97;2.10;;;;;;;6.92;100.00;97174.19;15294261;19;20509;-50
2023/12/13 19:59:52;;;;;;;3.33;2.38;;;;;;;6.90;100.00;97175.31;15287233;19;20068;-51
2023/12/13 20:05:25;;;;;;;3.83;2.55;;;;;;;6.90;100.00;97191.38;15287789;19;20034;-52
2023/12/13 20:10:49;;;;;;;4.45;2.15;;;;;;;6.93;100.00;97199.09;15282405;19;20015;-56
2023/12/13 20:16:15;;;;;;;2.95;2.58;;;;;;;6.93;100.00;97207.13;15278659;19;20046;-52
2023/12/13 20:21:42;;;;;;;3.50;2.65;;;;;;;6.90;100.00;97199.41;15288800;19;20066;-54
2023/12/13 20:27:07;;;;;;;2.83;2.35;;;;;;;6.89;100.00;97214.66;15288517;19;20478;-52
2023/12/13 20:32:32;;;;;;;6.40;3.22;;;;;;;6.87;100.00;97210.50;15286789;19;20021;-53
2023/12/13 20:38:00;;;;;;;5.80;3.40;;;;;;;6.86;100.00;97216.84;15291392;19;20014;-54
2023/12/13 20:43:31;;;;;;;4.03;2.78;;;;;;;6.84;100.00;97211.63;15281942;19;20025;-51
2023/12/13 20:48:56;;;;;;;4.77;2.97;;;;;;;6.84;100.00;97226.88;15276550;19;20074;-53
2023/12/13 20:54:23;;;;;;;3.55;2.72;;;;;;;6.82;100.00;97239.59;15289237;19;20246;-53
2023/12/13 20:59:47;;;;;;;8.05;4.10;;;;;;;6.84;100.00;97237.59;15284200;19;20349;-52
2023/12/13 21:05:13;;;;;;;4.63;4.07;;;;;;;6.87;100.00;97235.41;15288093;19;20341;-52
2023/12/13 21:10:40;;;;;;;5.40;3.67;;;;;;;6.90;100.00;97255.66;15287642;19;20021;-50
2023/12/13 21:16:05;;;;;;;6.00;3.80;;;;;;;6.92;100.00;97257.16;15288440;19;20078;-52
2023/12/13 21:21:29;;;;;;;5.22;4.00;;;;;;;6.89;100.00;97254.81;15280851;19;20018;-50
2023/12/13 21:26:57;;;;;;;5.32;3.95;;;;;;;6.86;100.00;97252.47;15280160;19;20082;-53
2023/12/13 21:32:22;;;;;;;6.10;4.20;;;;;;;6.78;100.00;97258.66;15281013;19;20025;-49
2023/12/13 21:37:46;;;;;;;6.18;4.60;;;;;;;6.70;100.00;97258.66;15279718;19;20011;-49
2023/12/13 21:43:13;;;;;;;9.55;5.13;;;;;;;6.66;100.00;97265.31;15279646;19;20105;-50
2023/12/13 21:48:38;;;;;;;7.72;5.13;;;;;;;6.66;100.00;97276.03;15282014;19;20013;-49
2023/12/13 21:54:02;;;;;;;6.13;5.22;;;;;;;6.70;100.00;97292.63;15281751;19;20018;-53
2023/12/13 21:59:30;;;;;;;7.13;4.85;;;;;;;6.73;100.00;97302.97;15284975;19;20495;-53
2023/12/13 22:04:54;;;;;;;5.93;4.57;;;;;;;6.72;100.00;97304.81;15284310;19;20025;-51
2023/12/13 22:10:22;;;;;;;6.70;4.20;;;;;;;6.70;100.00;97304.16;15282696;19;20036;-50
2023/12/13 22:15:51;;;;;;;6.78;4.50;;;;;;;6.65;100.00;97306.47;15286951;19;20021;-52
2023/12/13 22:21:16;;;;;;;6.05;4.70;;;;;;;6.63;100.00;97319.19;15283798;19;20010;-50
2023/12/13 22:26:41;;;;;;;12.60;6.03;;;;;;;6.57;100.00;97318.00;15286325;19;20015;-51
2023/12/13 22:32:08;;;;;;;9.00;5.45;;;;;;;6.56;100.00;97331.53;15284409;19;20046;-53
2023/12/13 22:37:33;;;;;;;6.22;5.53;;;;;;;6.52;100.00;97338.22;15287717;19;20029;-53
2023/12/13 22:42:58;;;;;;;7.65;5.80;;;;;;;6.50;100.00;97345.59;15287922;19;20014;-53
2023/12/13 22:48:25;;;;;;;6.72;5.43;;;;;;;6.52;100.00;97355.09;15295560;19;20011;-50
2023/12/13 22:53:50;;;;;;;5.78;5.28;;;;;;;6.55;100.00;97356.63;15284352;19;20025;-51
2023/12/13 22:59:15;;;;;;;8.85;6.05;;;;;;;6.55;100.00;97364.66;15296213;19;20021;-50
2023/12/13 23:04:42;;;;;;;14.20;6.93;;;;;;;6.56;100.00;97385.06;15294935;19;20018;-50
2023/12/13 23:10:09;;;;;;;14.75;8.15;;;;;;;6.53;100.00;97382.69;15291727;19;20018;-49
2023/12/13 23:15:34;;;;;;;647.78;17.88;;;;;;;6.46;100.00;97387.88;15293006;19;20010;-49
2023/12/13 23:21:02;;;;;;;15.27;8.80;;;;;;;6.43;100.00;97391.69;15289497;19;20086;-51
2023/12/13 23:26:27;;;;;;;13.73;9.63;;;;;;;6.42;100.00;97397.22;15278378;19;20015;-53
2023/12/13 23:31:52;;;;;;;10.00;8.63;;;;;;;6.46;100.00;97410.09;15293823;19;20070;-51
2023/12/13 23:37:19;;;;;;;9.88;7.97;;;;;;;6.53;100.00;97414.81;15296764;19;20082;-49
2023/12/13 23:42:43;;;;;;;7.95;7.18;;;;;;;6.57;100.00;97422.38;15291543;19;20375;-49
2023/12/13 23:48:08;;;;;;;8.38;6.28;;;;;;;6.61;100.00;97428.25;15293691;19;20022;-49
2023/12/13 23:53:36;;;;;;;5.18;4.68;;;;;;;6.81;100.00;97439.53;15290751;19;20403;-49
2023/12/13 23:59:01;;;;;;;6.38;4.57;;;;;;;6.91;100.00;97450.09;15290257;19;20018;-51
